createdAt,value
2018-10-12T00:00:25.307Z,20.90
2018-10-12T00:04:21.912Z,20.90
2018-10-12T00:08:18.399Z,20.90
2018-10-12T00:12:14.989Z,20.90
2018-10-12T00:16:11.480Z,21.00
2018-10-12T00:20:09.018Z,20.90
2018-10-12T00:24:06.038Z,20.90
2018-10-12T00:28:03.936Z,20.90
2018-10-12T00:32:00.458Z,20.90
2018-10-12T00:35:57.226Z,20.90
2018-10-12T00:39:55.835Z,20.90
2018-10-12T00:43:52.817Z,20.90
2018-10-12T00:54:14.343Z,20.90
2018-10-12T00:58:10.818Z,20.90
2018-10-12T01:02:07.281Z,20.90
2018-10-12T01:06:03.978Z,20.90
2018-10-12T01:10:00.656Z,20.90
2018-10-12T01:13:58.261Z,20.90
2018-10-12T01:17:55.157Z,20.90
2018-10-12T01:21:51.815Z,20.90
2018-10-12T01:25:48.270Z,20.90
2018-10-12T01:29:44.764Z,20.90
2018-10-12T01:33:41.413Z,20.90
2018-10-12T01:37:38.284Z,20.90
2018-10-12T01:41:34.773Z,20.90
2018-10-12T01:45:31.544Z,20.90
2018-10-12T01:49:28.446Z,20.90
2018-10-12T01:53:24.940Z,20.90
2018-10-12T01:57:21.705Z,20.90
2018-10-12T02:01:18.238Z,20.90
2018-10-12T02:05:14.944Z,20.90
2018-10-12T02:09:11.463Z,20.90
2018-10-12T02:13:08.220Z,20.90
2018-10-12T02:17:04.823Z,20.90
2018-10-12T02:21:01.861Z,20.90
2018-10-12T02:24:58.373Z,20.90
2018-10-12T02:28:54.989Z,20.90
2018-10-12T02:32:51.663Z,20.90
2018-10-12T02:36:48.300Z,20.90
2018-10-12T02:40:44.815Z,20.90
2018-10-12T02:44:41.356Z,20.90
2018-10-12T02:48:37.901Z,20.90
2018-10-12T02:52:34.361Z,20.90
2018-10-12T02:56:31.366Z,20.90
2018-10-12T03:00:27.817Z,20.90
2018-10-12T03:04:24.448Z,20.90
2018-10-12T03:08:21.004Z,20.90
2018-10-12T03:12:17.661Z,20.90
2018-10-12T03:16:14.791Z,20.90
2018-10-12T03:20:11.433Z,20.90
2018-10-12T03:24:08.147Z,20.90
2018-10-12T03:28:22.725Z,20.90
2018-10-12T03:32:20.410Z,20.90
2018-10-12T03:36:17.054Z,20.90
2018-10-12T03:40:13.835Z,20.90
2018-10-12T03:44:10.523Z,20.90
2018-10-12T03:48:06.685Z,20.90
2018-10-12T03:52:07.014Z,20.90
2018-10-12T03:56:03.385Z,20.90
2018-10-12T03:59:59.613Z,20.90
2018-10-12T04:03:56.159Z,20.90
2018-10-12T04:07:52.671Z,20.90
2018-10-12T04:11:49.159Z,20.80
2018-10-12T04:15:45.808Z,20.90
2018-10-12T04:19:42.731Z,20.90
2018-10-12T04:23:40.377Z,20.90
2018-10-12T04:27:36.753Z,20.80
2018-10-12T04:31:33.461Z,20.90
2018-10-12T04:35:29.721Z,20.90
2018-10-12T04:39:44.140Z,20.90
2018-10-12T04:43:41.124Z,20.90
2018-10-12T04:47:37.841Z,20.90
2018-10-12T04:51:43.223Z,20.90
2018-10-12T04:55:39.446Z,20.80
2018-10-12T04:59:36.384Z,20.80
2018-10-12T05:03:33.145Z,20.80
2018-10-12T05:07:29.576Z,20.90
2018-10-12T05:11:26.152Z,20.80
2018-10-12T05:15:22.949Z,20.90
2018-10-12T05:19:19.760Z,20.80
2018-10-12T05:23:16.358Z,20.80
2018-10-12T05:27:13.257Z,20.80
2018-10-12T05:31:09.936Z,20.80
2018-10-12T05:35:06.734Z,20.80
2018-10-12T05:39:03.277Z,20.80
2018-10-12T05:42:59.958Z,20.80
2018-10-12T05:46:56.815Z,20.80
2018-10-12T05:50:53.791Z,20.90
2018-10-12T05:54:50.590Z,20.80
2018-10-12T05:58:47.840Z,20.80
2018-10-12T06:02:44.547Z,20.80
2018-10-12T06:06:41.066Z,20.80
2018-10-12T06:10:37.641Z,20.80
2018-10-12T06:14:34.184Z,20.80
2018-10-12T06:18:30.773Z,20.80
2018-10-12T06:22:27.446Z,20.80
2018-10-12T06:26:24.319Z,20.80
2018-10-12T06:30:20.962Z,20.80
2018-10-12T06:34:17.658Z,20.90
2018-10-12T06:38:14.254Z,20.90
2018-10-12T06:42:12.078Z,20.90
2018-10-12T06:46:09.375Z,20.90
2018-10-12T06:50:06.593Z,20.90
2018-10-12T06:54:03.793Z,20.90
2018-10-12T06:58:01.025Z,20.90
2018-10-12T07:01:58.093Z,20.90
2018-10-12T07:05:54.989Z,20.90
2018-10-12T07:09:51.680Z,20.90
2018-10-12T07:13:48.951Z,20.90
2018-10-12T07:17:45.649Z,20.90
2018-10-12T07:21:42.307Z,20.90
2018-10-12T07:25:38.976Z,20.90
2018-10-12T07:29:35.541Z,20.90
2018-10-12T07:33:32.389Z,21.00
2018-10-12T07:37:30.276Z,21.00
2018-10-12T07:41:26.760Z,21.10
2018-10-12T07:45:23.596Z,21.20
2018-10-12T07:49:20.344Z,21.20
2018-10-12T07:53:17.016Z,21.30
2018-10-12T07:57:15.394Z,21.40
2018-10-12T08:01:12.247Z,21.40
2018-10-12T08:05:08.617Z,21.40
2018-10-12T08:09:08.020Z,21.50
2018-10-12T08:13:04.899Z,21.60
2018-10-12T08:17:01.667Z,21.60
2018-10-12T08:20:58.420Z,21.70
2018-10-12T08:24:55.569Z,21.70
2018-10-12T08:28:52.422Z,21.70
2018-10-12T08:32:49.158Z,21.70
2018-10-12T08:36:45.759Z,21.70
2018-10-12T08:40:42.678Z,21.70
2018-10-12T08:44:39.304Z,21.60
2018-10-12T08:48:35.991Z,21.70
2018-10-12T08:52:33.336Z,21.60
2018-10-12T08:56:30.276Z,21.70
2018-10-12T09:00:27.214Z,21.70
2018-10-12T09:04:23.803Z,21.70
2018-10-12T09:08:20.436Z,21.70
2018-10-12T09:12:16.808Z,21.70
2018-10-12T09:16:13.233Z,21.60
2018-10-12T09:20:09.980Z,21.70
2018-10-12T09:24:08.133Z,21.70
2018-10-12T09:28:05.053Z,21.70
2018-10-12T09:32:01.693Z,21.70
2018-10-12T09:35:58.398Z,21.60
2018-10-12T09:39:55.468Z,21.70
2018-10-12T09:43:51.800Z,21.70
2018-10-12T09:47:48.418Z,21.60
2018-10-12T09:51:44.982Z,21.70
2018-10-12T09:55:41.243Z,21.70
2018-10-12T09:59:41.649Z,21.70
2018-10-12T10:03:43.418Z,21.70
2018-10-12T10:07:41.343Z,21.80
2018-10-12T10:11:37.888Z,21.80
2018-10-12T10:15:34.680Z,21.80
2018-10-12T10:19:31.256Z,21.90
2018-10-12T10:23:27.827Z,21.90
2018-10-12T10:27:24.723Z,21.90
2018-10-12T10:31:21.839Z,21.90
2018-10-12T10:35:18.695Z,21.90
2018-10-12T10:39:15.054Z,22.00
2018-10-12T10:43:11.768Z,22.00
2018-10-12T10:47:08.429Z,22.00
2018-10-12T10:51:05.086Z,22.00
2018-10-12T10:55:03.456Z,22.00
2018-10-12T10:59:00.430Z,22.10
2018-10-12T11:02:57.761Z,22.10
2018-10-12T11:06:54.443Z,22.10
2018-10-12T11:10:51.469Z,22.10
2018-10-12T11:14:49.560Z,22.10
2018-10-12T11:18:47.568Z,22.20
2018-10-12T11:22:44.255Z,22.20
2018-10-12T11:26:41.670Z,22.20
2018-10-12T11:30:39.462Z,22.10
2018-10-12T11:34:36.251Z,22.20
2018-10-12T11:38:33.350Z,22.20
2018-10-12T11:42:49.657Z,22.20
2018-10-12T11:46:46.343Z,22.20
2018-10-12T11:50:43.348Z,22.30
2018-10-12T11:54:40.129Z,22.30
2018-10-12T11:58:36.931Z,22.30
2018-10-12T12:02:34.473Z,22.30
2018-10-12T12:06:35.316Z,22.30
2018-10-12T12:10:32.025Z,22.30
2018-10-12T12:14:28.399Z,22.30
2018-10-12T12:18:25.633Z,22.30
2018-10-12T12:22:24.728Z,22.30
2018-10-12T12:26:21.566Z,22.30
2018-10-12T12:30:18.720Z,22.40
2018-10-12T12:34:18.245Z,22.40
2018-10-12T12:38:16.263Z,22.40
2018-10-12T12:42:12.627Z,22.40
2018-10-12T12:46:09.455Z,22.40
2018-10-12T12:50:06.660Z,22.40
2018-10-12T12:54:03.453Z,22.40
2018-10-12T12:58:00.145Z,22.40
2018-10-12T13:01:56.660Z,22.40
2018-10-12T13:05:53.724Z,22.40
2018-10-12T13:09:52.066Z,22.40
2018-10-12T13:13:49.182Z,22.40
2018-10-12T13:17:46.481Z,22.30
2018-10-12T13:21:43.843Z,22.20
2018-10-12T13:25:41.014Z,22.10
2018-10-12T13:29:38.567Z,22.10
2018-10-12T13:33:35.629Z,22.20
2018-10-12T13:37:32.211Z,22.30
2018-10-12T13:41:30.611Z,22.40
2018-10-12T13:45:27.666Z,22.50
2018-10-12T13:49:24.412Z,22.70
2018-10-12T13:53:21.120Z,22.70
2018-10-12T13:57:19.410Z,22.80
2018-10-12T14:01:15.998Z,22.80
2018-10-12T14:05:13.115Z,22.80
2018-10-12T14:09:09.653Z,22.80
2018-10-12T14:13:06.389Z,22.80
2018-10-12T14:17:03.126Z,22.80
2018-10-12T14:21:01.813Z,22.80
2018-10-12T14:24:59.671Z,22.80
2018-10-12T14:28:56.540Z,22.80
2018-10-12T14:32:54.492Z,22.80
2018-10-12T14:36:51.239Z,22.80
2018-10-12T14:41:01.636Z,22.90
2018-10-12T14:44:58.669Z,22.90
2018-10-12T14:48:55.508Z,22.80
2018-10-12T14:52:55.109Z,22.80
2018-10-12T14:57:12.197Z,22.70
2018-10-12T15:01:10.037Z,22.70
2018-10-12T15:05:07.365Z,22.80
2018-10-12T15:09:04.801Z,22.80
2018-10-12T15:13:01.692Z,22.80
2018-10-12T15:16:58.072Z,22.80
2018-10-12T15:20:55.180Z,22.80
2018-10-12T15:24:52.144Z,22.70
2018-10-12T15:28:48.849Z,22.80
2018-10-12T15:32:45.895Z,22.70
2018-10-12T15:36:42.559Z,22.80
2018-10-12T15:40:39.137Z,22.80
2018-10-12T15:44:36.133Z,22.70
2018-10-12T15:48:32.606Z,22.70
2018-10-12T15:52:29.427Z,22.70
2018-10-12T15:56:26.998Z,22.70
2018-10-12T16:00:25.157Z,22.70
2018-10-12T16:04:21.768Z,22.60
2018-10-12T16:08:18.603Z,22.60
2018-10-12T16:12:15.814Z,22.60
2018-10-12T16:16:12.680Z,22.50
2018-10-12T16:20:09.543Z,22.40
2018-10-12T16:24:13.015Z,22.40
2018-10-12T16:28:12.499Z,22.30
2018-10-12T16:32:09.147Z,22.30
2018-10-12T16:36:06.121Z,22.30
2018-10-12T16:40:03.339Z,22.20
2018-10-12T16:44:00.298Z,22.20
2018-10-12T16:47:57.536Z,22.10
2018-10-12T16:51:55.749Z,22.10
2018-10-12T16:55:53.611Z,22.10
2018-10-12T16:59:50.606Z,22.10
2018-10-12T17:03:50.531Z,22.00
2018-10-12T17:07:47.843Z,22.00
2018-10-12T17:11:44.870Z,22.00
2018-10-12T17:15:41.791Z,22.00
2018-10-12T17:19:38.522Z,22.00
2018-10-12T17:23:35.700Z,21.90
2018-10-12T17:27:34.312Z,21.90
2018-10-12T17:31:30.993Z,21.90
2018-10-12T17:35:29.841Z,21.90
2018-10-12T17:39:26.869Z,21.90
2018-10-12T17:43:24.257Z,21.90
2018-10-12T17:47:21.140Z,21.90
2018-10-12T17:51:18.139Z,21.90
2018-10-12T17:55:15.012Z,21.80
2018-10-12T17:59:11.884Z,21.80
2018-10-12T18:03:09.209Z,21.80
2018-10-12T18:07:07.105Z,21.80
2018-10-12T18:11:03.985Z,21.80
2018-10-12T18:15:00.850Z,21.80
2018-10-12T18:18:58.256Z,21.80
2018-10-12T18:22:56.508Z,21.80
2018-10-12T18:26:53.858Z,21.80
2018-10-12T18:30:51.633Z,21.70
2018-10-12T18:34:51.610Z,21.80
2018-10-12T18:38:49.884Z,21.80
2018-10-12T18:42:47.750Z,21.70
2018-10-12T18:46:45.147Z,21.80
2018-10-12T18:50:42.029Z,21.80
2018-10-12T18:54:43.243Z,21.80
2018-10-12T18:58:41.866Z,21.80
2018-10-12T19:02:39.257Z,21.80
2018-10-12T19:06:38.078Z,21.80
2018-10-12T19:10:35.654Z,21.70
2018-10-12T19:14:34.776Z,21.70
2018-10-12T19:18:31.775Z,21.70
2018-10-12T19:22:31.062Z,21.70
2018-10-12T19:26:28.633Z,21.70
2018-10-12T19:30:27.428Z,21.70
2018-10-12T19:34:24.550Z,21.70
2018-10-12T19:38:23.117Z,21.70
2018-10-12T19:42:20.240Z,21.70
2018-10-12T19:46:18.560Z,21.70
2018-10-12T19:50:16.241Z,21.70
2018-10-12T19:54:15.074Z,21.70
2018-10-12T19:58:12.094Z,21.70
2018-10-12T20:02:10.142Z,21.70
2018-10-12T20:06:07.295Z,21.60
2018-10-12T20:10:06.123Z,21.60
2018-10-12T20:14:03.346Z,21.70
2018-10-12T20:18:00.543Z,21.70
2018-10-12T20:21:57.634Z,21.70
2018-10-12T20:25:56.597Z,21.70
2018-10-12T20:29:58.359Z,21.60
2018-10-12T20:33:56.539Z,21.70
2018-10-12T20:37:53.692Z,21.70
2018-10-12T20:41:53.238Z,21.60
2018-10-12T20:45:52.213Z,21.70
2018-10-12T20:49:51.346Z,21.70
2018-10-12T20:53:51.361Z,21.60
2018-10-12T20:57:50.584Z,21.70
2018-10-12T21:02:12.301Z,21.70
2018-10-12T21:06:10.074Z,21.60
2018-10-12T21:10:08.340Z,21.70
2018-10-12T21:14:12.426Z,21.70
2018-10-12T21:18:09.646Z,21.60
2018-10-12T21:22:08.032Z,21.70
2018-10-12T21:26:05.928Z,21.70
2018-10-12T21:30:02.973Z,21.60
2018-10-12T21:34:01.044Z,21.70
2018-10-12T21:37:58.166Z,21.60
2018-10-12T21:41:56.812Z,21.70
2018-10-12T21:45:54.663Z,21.60
2018-10-12T21:49:52.590Z,21.60
2018-10-12T21:53:50.025Z,21.60
2018-10-12T21:57:47.817Z,21.60
2018-10-12T22:01:44.985Z,21.60
2018-10-12T22:05:42.246Z,21.60
2018-10-12T22:09:45.939Z,21.60
2018-10-12T22:13:44.093Z,21.60
2018-10-12T22:17:43.157Z,21.60
2018-10-12T22:21:46.070Z,21.60
2018-10-12T22:25:44.866Z,21.60
2018-10-12T22:29:44.818Z,21.60
2018-10-12T22:33:43.313Z,21.60
2018-10-12T22:37:47.200Z,21.60
2018-10-12T22:41:46.064Z,21.60
2018-10-12T22:45:43.767Z,21.60
2018-10-12T22:49:43.451Z,21.60
2018-10-12T22:53:42.169Z,21.60
2018-10-12T22:57:40.023Z,21.60
2018-10-12T23:01:38.099Z,21.60
2018-10-12T23:05:36.314Z,21.60
2018-10-12T23:09:35.049Z,21.60
2018-10-12T23:13:32.231Z,21.70
2018-10-12T23:17:29.098Z,21.60
2018-10-12T23:21:26.544Z,21.60
2018-10-12T23:39:59.955Z,21.70
2018-10-12T23:44:00.141Z,21.60
2018-10-12T23:48:03.259Z,21.60
2018-10-12T23:52:09.350Z,21.60
2018-10-12T23:56:06.809Z,21.60
